Time;durP1;ratioP1;P1;durP2;ratioP2;P2;SDS_P1;SDS_P2;PMS_P1;PMS_P2;Temp;Humidity;BMP_temperature;BMP_pressure;BME280_temperature;BME280_humidity;BME280_pressure;Samples;Min_cycle;Max_cycle;Signal;HPM_P1;HPM_P2
2022/11/22 00:02:09;;;;;;;6.50;3.40;;;7.00;85.20;;;;;;5032983;28;20036;-61
2022/11/22 00:04:35;;;;;;;5.25;2.75;;;7.00;85.20;;;;;;5031845;28;20396;-61
2022/11/22 00:07:01;;;;;;;4.28;3.00;;;7.00;85.30;;;;;;5038078;28;20037;-60
2022/11/22 00:09:26;;;;;;;5.63;2.85;;;7.10;85.40;;;;;;5039425;28;20033;-60
2022/11/22 00:11:52;;;;;;;5.50;3.20;;;7.10;85.50;;;;;;5040241;28;20053;-59
2022/11/22 00:14:17;;;;;;;5.07;2.90;;;7.10;85.50;;;;;;5038637;28;20471;-59
2022/11/22 00:16:43;;;;;;;2.97;2.70;;;7.10;85.50;;;;;;5038819;28;20041;-59
2022/11/22 00:19:09;;;;;;;5.70;3.15;;;7.10;86.40;;;;;;5039993;28;20499;-59
2022/11/22 00:21:34;;;;;;;5.43;3.40;;;7.10;85.50;;;;;;5034351;28;20025;-60
2022/11/22 00:24:00;;;;;;;6.57;3.33;;;7.20;85.30;;;;;;5031854;28;20130;-59
2022/11/22 00:26:26;;;;;;;3.97;2.85;;;7.20;85.20;;;;;;5030488;28;20045;-61
2022/11/22 00:28:51;;;;;;;4.35;3.03;;;7.20;85.20;;;;;;5031393;28;20518;-61
2022/11/22 00:31:17;;;;;;;4.75;3.28;;;7.10;85.20;;;;;;5033962;28;20508;-61
2022/11/22 00:33:42;;;;;;;3.55;3.00;;;7.20;85.30;;;;;;5030637;28;20021;-61
2022/11/22 00:36:08;;;;;;;4.22;3.10;;;7.20;85.30;;;;;;5033669;28;20381;-59
2022/11/22 00:38:34;;;;;;;3.45;2.85;;;7.20;85.30;;;;;;5031128;28;20049;-61
2022/11/22 00:40:59;;;;;;;5.20;3.08;;;7.20;85.30;;;;;;5030410;28;20041;-61
2022/11/22 00:43:26;;;;;;;6.03;3.25;;;7.20;85.30;;;;;;5031597;28;20124;-61
2022/11/22 00:45:52;;;;;;;3.85;3.08;;;7.20;85.20;;;;;;5030382;28;20445;-61
2022/11/22 00:48:17;;;;;;;5.90;3.33;;;7.20;85.30;;;;;;5033514;28;20065;-61
2022/11/22 00:50:43;;;;;;;6.65;3.90;;;7.30;85.50;;;;;;5036463;28;20128;-59
2022/11/22 00:53:08;;;;;;;4.97;3.40;;;7.30;85.50;;;;;;5038448;28;20036;-59
2022/11/22 00:55:34;;;;;;;6.28;3.53;;;7.30;85.50;;;;;;5034080;28;20052;-61
2022/11/22 00:58:00;;;;;;;6.22;3.22;;;7.30;85.50;;;;;;5033764;28;20033;-60
2022/11/22 01:00:25;;;;;;;5.13;2.88;;;7.30;85.50;;;;;;5034466;28;20069;-59
2022/11/22 01:02:51;;;;;;;4.43;2.95;;;7.30;85.40;;;;;;5033573;28;20036;-60
2022/11/22 01:05:19;;;;;;;3.90;2.28;;;7.40;85.40;;;;;;5031292;28;20500;-61
2022/11/22 01:07:45;;;;;;;3.97;2.70;;;7.50;85.50;;;;;;5038588;28;20162;-58
2022/11/22 01:10:10;;;;;;;4.85;2.25;;;7.40;85.30;;;;;;5037183;28;20144;-60
2022/11/22 01:12:36;;;;;;;3.70;2.30;;;7.40;85.30;;;;;;5035109;28;20478;-61
2022/11/22 01:15:02;;;;;;;3.55;2.20;;;7.40;85.40;;;;;;5035940;28;20029;-60
2022/11/22 01:17:28;;;;;;;3.80;2.10;;;7.40;85.40;;;;;;5035438;28;20037;-59
2022/11/22 01:19:54;;;;;;;5.97;2.50;;;7.40;85.40;;;;;;5035525;28;22164;-59
2022/11/22 01:22:19;;;;;;;4.88;2.33;;;7.40;85.50;;;;;;5032316;28;20333;-60
2022/11/22 01:24:45;;;;;;;4.68;2.60;;;7.40;86.50;;;;;;5031783;28;20160;-59
2022/11/22 01:27:10;;;;;;;5.28;2.78;;;7.40;85.80;;;;;;5030136;28;20048;-59
2022/11/22 01:29:36;;;;;;;3.58;2.40;;;7.40;85.90;;;;;;5029719;28;20795;-60
2022/11/22 01:32:02;;;;;;;7.13;2.63;;;7.40;85.90;;;;;;5034194;28;20140;-60
2022/11/22 01:34:27;;;;;;;4.25;2.22;;;7.40;86.00;;;;;;5028368;28;20562;-60
2022/11/22 01:36:53;;;;;;;5.38;2.75;;;7.50;86.10;;;;;;5031724;28;20073;-59
2022/11/22 01:39:18;;;;;;;4.22;2.08;;;7.50;87.00;;;;;;5031507;28;20044;-60
2022/11/22 01:41:44;;;;;;;3.88;1.98;;;7.50;86.20;;;;;;5030993;28;20033;-58
2022/11/22 01:44:19;;;;;;;4.22;2.13;;;7.50;86.30;;;;;;5030848;28;20060;-59
2022/11/22 01:46:46;;;;;;;4.45;2.45;;;7.50;86.60;;;;;;5029557;28;20033;-59
2022/11/22 01:49:28;;;;;;;3.63;2.10;;;7.50;86.40;;;;;;5030589;28;20404;-61
2022/11/22 01:52:01;;;;;;;6.03;2.38;;;7.50;86.50;;;;;;5030549;28;20627;-60
2022/11/22 01:54:31;;;;;;;2.80;1.83;;;7.50;86.60;;;;;;5033987;28;20068;-61
2022/11/22 01:57:02;;;;;;;2.53;2.00;;;7.50;86.60;;;;;;5011180;28;20737;-61
2022/11/22 01:59:31;;;;;;;3.42;2.05;;;7.60;86.60;;;;;;5033370;28;20079;-60
2022/11/22 02:01:57;;;;;;;4.82;2.40;;;7.60;86.50;;;;;;5042051;28;20030;-60
2022/11/22 02:04:26;;;;;;;4.65;2.13;;;7.60;86.40;;;;;;5031684;28;20492;-60
2022/11/22 02:07:05;;;;;;;3.13;2.33;;;7.60;86.50;;;;;;5032479;28;20412;-59
2022/11/22 02:09:31;;;;;;;2.88;2.20;;;7.70;86.70;;;;;;5033429;28;20062;-60
2022/11/22 02:12:01;;;;;;;5.25;2.30;;;7.70;86.40;;;;;;5030026;28;20064;-59
2022/11/22 02:14:27;;;;;;;4.85;2.42;;;7.70;86.50;;;;;;5033849;28;20086;-59
2022/11/22 02:16:53;;;;;;;3.53;2.45;;;7.70;86.40;;;;;;5035969;28;20095;-60
2022/11/22 02:19:38;;;;;;;3.88;2.20;;;7.70;86.40;;;;;;5014519;28;20044;-58
2022/11/22 02:22:23;;;;;;;6.78;2.40;;;7.80;86.60;;;;;;5035176;28;20423;-60
2022/11/22 02:25:05;;;;;;;4.03;2.38;;;7.80;86.70;;;;;;5032754;28;20964;-61
2022/11/22 02:27:30;;;;;;;6.68;2.45;;;7.80;86.40;;;;;;5029724;28;20037;-59
2022/11/22 02:29:56;;;;;;;3.13;2.25;;;7.80;86.40;;;;;;5030368;28;20040;-60
2022/11/22 02:32:21;;;;;;;3.50;2.65;;;7.80;86.30;;;;;;5032067;28;20057;-59
2022/11/22 02:34:49;;;;;;;4.00;2.50;;;7.80;86.40;;;;;;5029242;28;20044;-60
2022/11/22 02:37:19;;;;;;;4.60;2.53;;;7.80;86.40;;;;;;5027983;28;20033;-61
2022/11/22 02:39:47;;;;;;;4.75;2.40;;;7.80;86.40;;;;;;5037680;28;20040;-61
2022/11/22 02:42:13;;;;;;;3.50;2.20;;;7.80;86.40;;;;;;5033532;28;20029;-61
2022/11/22 02:44:40;;;;;;;4.63;2.35;;;7.80;86.40;;;;;;5033569;28;20502;-60
2022/11/22 02:47:05;;;;;;;4.20;2.50;;;7.90;86.50;;;;;;5033011;28;20040;-60
2022/11/22 02:49:31;;;;;;;5.15;2.40;;;7.90;86.50;;;;;;5035336;28;20033;-60
2022/11/22 02:51:57;;;;;;;2.72;2.30;;;7.90;86.50;;;;;;5034334;28;20040;-60
2022/11/22 02:54:22;;;;;;;5.10;2.63;;;7.90;86.50;;;;;;5035954;28;20033;-61
2022/11/22 02:56:48;;;;;;;3.15;2.47;;;7.90;86.60;;;;;;5034644;28;20115;-60
2022/11/22 02:59:14;;;;;;;6.22;2.65;;;8.00;86.70;;;;;;5037698;28;20033;-60
2022/11/22 03:01:40;;;;;;;4.70;3.03;;;8.00;86.70;;;;;;5035212;28;20033;-60
2022/11/22 03:04:06;;;;;;;3.53;2.63;;;8.00;86.80;;;;;;5034198;28;20123;-60
2022/11/22 03:06:31;;;;;;;5.25;3.13;;;8.10;86.90;;;;;;5036622;28;20131;-60
2022/11/22 03:08:57;;;;;;;4.95;3.25;;;8.00;86.80;;;;;;5038567;28;20048;-60
2022/11/22 03:11:23;;;;;;;4.68;3.40;;;8.10;86.90;;;;;;5037640;28;20080;-59
2022/11/22 03:13:49;;;;;;;6.80;3.63;;;8.10;87.10;;;;;;5040170;28;20036;-59
2022/11/22 03:16:14;;;;;;;5.63;3.78;;;8.10;87.20;;;;;;5037250;28;20447;-60
2022/11/22 03:18:40;;;;;;;6.65;4.30;;;8.10;87.40;;;;;;5036396;28;20084;-61
2022/11/22 03:21:07;;;;;;;5.57;3.88;;;8.10;87.40;;;;;;5037455;28;20064;-59
2022/11/22 03:23:33;;;;;;;5.20;4.07;;;8.10;87.40;;;;;;5039342;28;20083;-60
2022/11/22 03:26:05;;;;;;;6.32;4.20;;;8.20;87.60;;;;;;5040201;28;20041;-61
2022/11/22 03:28:30;;;;;;;4.95;4.40;;;8.20;87.40;;;;;;5040285;28;20400;-60
2022/11/22 03:30:56;;;;;;;5.88;4.40;;;8.20;87.30;;;;;;5040031;28;20040;-60
2022/11/22 03:33:22;;;;;;;5.88;4.45;;;8.20;87.30;;;;;;5039628;28;20543;-59
2022/11/22 03:35:47;;;;;;;6.68;4.45;;;8.30;87.20;;;;;;5039506;28;20041;-60
2022/11/22 03:38:13;;;;;;;7.97;4.45;;;8.20;87.10;;;;;;5039418;28;20068;-59
2022/11/22 03:40:39;;;;;;;6.70;4.63;;;8.30;87.10;;;;;;5039366;28;20037;-61
2022/11/22 03:43:04;;;;;;;7.22;4.60;;;8.30;87.10;;;;;;5038423;28;20108;-60
2022/11/22 03:45:30;;;;;;;4.55;3.92;;;8.30;87.00;;;;;;5035190;28;20071;-59
2022/11/22 03:47:56;;;;;;;4.78;3.90;;;8.30;86.90;;;;;;5037561;28;20041;-61
2022/11/22 03:50:23;;;;;;;5.65;4.18;;;8.30;86.90;;;;;;5034087;28;20528;-59
2022/11/22 03:52:48;;;;;;;5.47;4.13;;;8.30;86.80;;;;;;5033136;28;20045;-61
2022/11/22 03:55:14;;;;;;;5.10;3.88;;;8.30;86.70;;;;;;5031805;28;20052;-61
2022/11/22 03:57:40;;;;;;;5.55;3.97;;;8.40;86.70;;;;;;5033998;28;20037;-59
2022/11/22 04:00:06;;;;;;;5.03;3.88;;;8.40;86.60;;;;;;5032500;28;20040;-60
2022/11/22 04:02:32;;;;;;;4.35;3.95;;;8.40;86.40;;;;;;5032389;28;20040;-58
2022/11/22 04:04:57;;;;;;;5.28;3.78;;;8.40;86.30;;;;;;5032028;28;20034;-59
2022/11/22 04:07:23;;;;;;;3.78;3.40;;;8.40;86.20;;;;;;5031482;28;20552;-60
2022/11/22 04:09:48;;;;;;;4.13;3.72;;;8.40;86.20;;;;;;5033197;28;20235;-61
2022/11/22 04:12:14;;;;;;;3.83;3.40;;;8.40;86.00;;;;;;5033162;28;20037;-59
2022/11/22 04:17:39;;;;;;;3.80;3.50;;;8.40;85.80;;;;;;5032837;28;20072;-60
2022/11/22 04:23:02;;;;;;;4.45;3.30;;;8.40;85.40;;;;;;5034183;28;20523;-60
2022/11/22 04:25:30;;;;;;;3.55;3.03;;;8.40;85.30;;;;;;5036517;28;20033;-58
2022/11/22 04:27:56;;;;;;;4.10;3.38;;;8.40;85.30;;;;;;5035987;28;20494;-59
2022/11/22 04:32:44;;;;;;;3.40;3.10;;;8.30;85.20;;;;;;5032783;28;20041;-60
2022/11/22 04:33:11;;;;;;;3.55;3.25;;;8.30;85.00;;;;;;5036616;28;20029;-61
2022/11/22 04:35:38;;;;;;;4.93;3.20;;;8.30;84.80;;;;;;5033376;28;20515;-60
2022/11/22 04:38:04;;;;;;;6.47;3.20;;;8.30;84.60;;;;;;5033758;28;20242;-60
2022/11/22 04:40:30;;;;;;;3.50;3.20;;;8.30;84.70;;;;;;5032003;28;20132;-60
2022/11/22 04:45:40;;;;;;;3.10;2.80;;;8.20;84.60;;;;;;5032830;28;20530;-59
2022/11/22 04:48:05;;;;;;;3.80;3.20;;;8.20;84.60;;;;;;5032245;28;20041;-60
2022/11/22 04:53:17;;;;;;;3.72;3.20;;;8.10;84.50;;;;;;5035478;28;20693;-59
2022/11/22 04:55:44;;;;;;;3.53;3.20;;;8.10;84.50;;;;;;5032473;28;20124;-61
2022/11/22 04:58:10;;;;;;;3.92;3.40;;;8.10;84.50;;;;;;5034382;28;20052;-59
2022/11/22 05:00:36;;;;;;;3.50;3.10;;;8.10;84.50;;;;;;5035011;28;20443;-61
2022/11/22 05:03:03;;;;;;;3.83;3.38;;;8.00;85.10;;;;;;5031978;28;20033;-61
2022/11/22 05:05:29;;;;;;;3.45;3.15;;;8.00;84.20;;;;;;5031937;28;20049;-60
2022/11/22 05:07:57;;;;;;;30.17;18.08;;;8.00;84.30;;;;;;5033776;28;20037;-61
2022/11/22 05:10:22;;;;;;;13.68;9.75;;;8.00;84.40;;;;;;5033417;28;20037;-60
2022/11/22 05:12:48;;;;;;;13.60;10.30;;;7.90;84.50;;;;;;5028668;28;20045;-58
2022/11/22 05:15:13;;;;;;;6.53;5.88;;;7.90;84.50;;;;;;5033367;28;20040;-60
2022/11/22 05:17:39;;;;;;;4.47;4.07;;;7.90;84.70;;;;;;5034911;28;20492;-59
2022/11/22 05:20:06;;;;;;;5.25;4.75;;;7.90;84.70;;;;;;5031582;28;20037;-60
2022/11/22 05:25:17;;;;;;;4.28;3.83;;;7.80;84.80;;;;;;5033120;28;20214;-60
2022/11/22 05:27:42;;;;;;;4.75;3.58;;;7.80;84.80;;;;;;5033252;28;20602;-61
2022/11/22 05:30:08;;;;;;;6.70;3.60;;;7.80;85.00;;;;;;5031082;28;20037;-59
2022/11/22 05:32:34;;;;;;;6.53;4.28;;;7.80;85.20;;;;;;5036103;28;20102;-61
2022/11/22 05:35:00;;;;;;;6.45;3.67;;;7.70;85.30;;;;;;5036683;28;20669;-61
2022/11/22 05:37:26;;;;;;;5.15;3.75;;;7.70;85.50;;;;;;5036226;28;20044;-60
2022/11/22 05:39:52;;;;;;;8.10;3.80;;;7.60;85.60;;;;;;5036677;28;20033;-60
2022/11/22 05:42:17;;;;;;;5.53;3.85;;;7.70;85.80;;;;;;5036089;28;20044;-60
2022/11/22 05:44:43;;;;;;;5.00;3.53;;;7.60;85.90;;;;;;5034671;28;20442;-60
2022/11/22 05:47:09;;;;;;;5.82;4.20;;;7.70;86.00;;;;;;5037607;28;20037;-59
2022/11/22 05:49:35;;;;;;;4.43;3.53;;;7.60;86.10;;;;;;5035602;28;20079;-60
2022/11/22 05:52:01;;;;;;;5.57;3.47;;;7.70;86.20;;;;;;5036440;28;20515;-60
2022/11/22 05:54:28;;;;;;;5.25;4.28;;;7.70;86.30;;;;;;5033658;28;20603;-60
2022/11/22 05:56:53;;;;;;;7.05;4.03;;;7.70;86.40;;;;;;5036048;28;20048;-59
2022/11/22 05:59:19;;;;;;;4.38;3.38;;;7.70;86.40;;;;;;5036709;28;20045;-59
2022/11/22 06:01:44;;;;;;;6.35;3.80;;;7.70;86.50;;;;;;5037224;28;20400;-61
2022/11/22 06:04:10;;;;;;;4.50;3.70;;;7.70;86.50;;;;;;5035425;28;20467;-60
2022/11/22 06:06:36;;;;;;;10.80;4.32;;;7.70;86.60;;;;;;5034428;28;20041;-60
2022/11/22 06:09:02;;;;;;;4.65;3.78;;;7.70;86.50;;;;;;5036964;28;20041;-59
2022/11/22 06:11:27;;;;;;;6.88;3.88;;;7.70;86.50;;;;;;5032371;28;20827;-61
2022/11/22 06:13:58;;;;;;;4.70;3.70;;;7.80;86.50;;;;;;5033225;28;20025;-60
2022/11/22 06:16:25;;;;;;;6.60;3.97;;;7.80;86.50;;;;;;5037143;28;20060;-60
2022/11/22 06:18:52;;;;;;;6.25;3.83;;;7.80;86.50;;;;;;5036100;28;20050;-61
2022/11/22 06:21:23;;;;;;;5.53;3.47;;;7.80;86.60;;;;;;5017678;28;20379;-60
2022/11/22 06:23:49;;;;;;;5.95;3.55;;;7.80;86.70;;;;;;5036389;28;20104;-60
2022/11/22 06:26:17;;;;;;;6.05;3.90;;;7.70;86.60;;;;;;5035952;28;20036;-60
2022/11/22 06:28:44;;;;;;;4.25;3.75;;;7.70;86.60;;;;;;5036435;28;20095;-59
2022/11/22 06:31:19;;;;;;;6.93;4.18;;;7.70;86.70;;;;;;5034827;28;20057;-61
2022/11/22 06:33:45;;;;;;;6.25;3.40;;;7.70;86.80;;;;;;5034999;28;20045;-59
2022/11/22 06:36:16;;;;;;;5.03;3.72;;;7.70;86.80;;;;;;5036428;28;20036;-61
2022/11/22 06:38:43;;;;;;;5.15;4.07;;;7.70;87.00;;;;;;5035734;28;20046;-61
2022/11/22 06:41:11;;;;;;;5.85;4.32;;;7.70;86.90;;;;;;5035052;28;20296;-61
2022/11/22 06:43:38;;;;;;;6.93;4.07;;;7.70;87.10;;;;;;5035433;28;20061;-61
2022/11/22 06:46:05;;;;;;;7.45;3.85;;;7.70;87.10;;;;;;5034642;28;20033;-60
2022/11/22 06:48:34;;;;;;;5.85;4.13;;;7.70;87.20;;;;;;5035119;28;20374;-60
2022/11/22 06:51:00;;;;;;;6.57;4.03;;;7.80;87.10;;;;;;5035123;28;20451;-61
2022/11/22 06:53:27;;;;;;;7.88;4.30;;;7.70;87.10;;;;;;5036454;28;20515;-60
2022/11/22 06:56:01;;;;;;;8.82;4.60;;;7.70;87.20;;;;;;5035806;28;20045;-60
2022/11/22 06:58:27;;;;;;;9.93;4.70;;;7.80;87.30;;;;;;5035553;28;20029;-60
2022/11/22 07:00:59;;;;;;;7.32;4.13;;;7.80;87.30;;;;;;5035488;28;20044;-60
2022/11/22 07:03:25;;;;;;;9.07;4.22;;;7.80;87.30;;;;;;5036361;28;20048;-59
2022/11/22 07:05:51;;;;;;;8.00;4.38;;;7.80;87.30;;;;;;5034213;28;20029;-61
2022/11/22 07:08:16;;;;;;;7.88;4.32;;;7.80;87.30;;;;;;5036214;28;20037;-59
2022/11/22 07:10:42;;;;;;;10.43;4.90;;;7.80;87.30;;;;;;5034405;28;20037;-59
2022/11/22 07:13:08;;;;;;;8.48;4.40;;;7.80;87.30;;;;;;5034597;28;20411;-58
2022/11/22 07:15:33;;;;;;;8.32;4.80;;;7.80;87.30;;;;;;5035408;28;20029;-59
2022/11/22 07:17:59;;;;;;;9.43;4.60;;;7.80;87.30;;;;;;5033899;28;20084;-59
2022/11/22 07:20:24;;;;;;;9.63;5.05;;;7.80;87.20;;;;;;5035153;28;20040;-61
2022/11/22 07:22:50;;;;;;;10.38;4.85;;;7.80;87.20;;;;;;5036028;28;20037;-61
2022/11/22 07:25:15;;;;;;;8.65;4.45;;;7.80;87.10;;;;;;5035890;28;20124;-60
2022/11/22 07:27:41;;;;;;;8.70;4.43;;;7.80;87.20;;;;;;5038952;28;20065;-60
2022/11/22 07:30:07;;;;;;;6.47;4.13;;;7.80;87.30;;;;;;5039536;28;20037;-60
2022/11/22 07:32:33;;;;;;;9.57;3.80;;;7.80;87.10;;;;;;5039121;28;20040;-59
2022/11/22 07:34:58;;;;;;;6.88;4.20;;;7.80;87.20;;;;;;5038933;28;20033;-59
2022/11/22 07:37:24;;;;;;;7.18;4.03;;;7.80;87.20;;;;;;5039108;28;20026;-60
2022/11/22 07:39:50;;;;;;;8.52;4.20;;;7.80;87.30;;;;;;5038328;28;20428;-60
2022/11/22 07:42:15;;;;;;;8.43;4.28;;;7.80;87.20;;;;;;5038044;28;20068;-61
2022/11/22 07:44:41;;;;;;;7.55;4.03;;;7.90;87.30;;;;;;5036962;28;20030;-59
2022/11/22 07:47:06;;;;;;;8.52;3.40;;;7.90;87.20;;;;;;5038922;28;20037;-59
2022/11/22 07:49:32;;;;;;;6.00;3.30;;;7.90;87.10;;;;;;5038306;28;20029;-60
2022/11/22 07:51:58;;;;;;;9.82;3.10;;;7.90;87.10;;;;;;5039072;28;20125;-60
2022/11/22 07:54:24;;;;;;;9.95;3.03;;;7.90;87.20;;;;;;5037757;28;20029;-59
2022/11/22 07:56:49;;;;;;;7.13;3.55;;;8.00;87.10;;;;;;5038108;28;20025;-59
2022/11/22 07:59:15;;;;;;;6.47;2.95;;;8.00;87.20;;;;;;5038094;28;20417;-59
2022/11/22 08:01:40;;;;;;;7.72;2.95;;;8.00;87.10;;;;;;5038502;28;20107;-60
2022/11/22 08:04:06;;;;;;;6.03;2.90;;;8.00;87.00;;;;;;5036683;28;20496;-60
2022/11/22 08:06:31;;;;;;;6.55;3.00;;;8.10;87.10;;;;;;5038007;28;20064;-59
2022/11/22 08:08:57;;;;;;;7.20;3.03;;;8.10;86.90;;;;;;5037596;28;20037;-60
2022/11/22 08:11:23;;;;;;;6.90;3.00;;;8.10;86.90;;;;;;5036421;28;20040;-60
2022/11/22 08:13:48;;;;;;;6.50;2.70;;;8.10;87.00;;;;;;5036767;28;20064;-60
2022/11/22 08:16:16;;;;;;;7.70;2.60;;;8.20;86.90;;;;;;5038438;28;20036;-59
2022/11/22 08:18:47;;;;;;;5.32;2.88;;;8.20;86.90;;;;;;5037672;28;20042;-59
2022/11/22 08:21:14;;;;;;;7.88;3.92;;;8.20;86.90;;;;;;5037752;28;20095;-61
2022/11/22 08:23:40;;;;;;;7.60;2.90;;;8.20;86.70;;;;;;5037558;28;20034;-59
2022/11/22 08:26:09;;;;;;;5.85;2.33;;;8.20;86.70;;;;;;5038302;28;20063;-61
2022/11/22 08:28:35;;;;;;;7.00;2.15;;;8.20;86.60;;;;;;5037825;28;20124;-61
2022/11/22 08:31:04;;;;;;;6.55;2.03;;;8.30;86.70;;;;;;5037907;28;20116;-60
2022/11/22 08:33:29;;;;;;;7.22;2.10;;;8.30;86.70;;;;;;5037311;28;20025;-61
2022/11/22 08:35:55;;;;;;;7.25;2.13;;;8.30;86.60;;;;;;5037445;28;20397;-61
2022/11/22 08:38:21;;;;;;;6.75;2.50;;;8.30;86.50;;;;;;5038170;28;20033;-60
2022/11/22 08:40:46;;;;;;;6.70;2.20;;;8.40;86.40;;;;;;5035678;28;20369;-60
2022/11/22 08:43:12;;;;;;;7.88;2.25;;;8.40;86.30;;;;;;5038164;28;20044;-59
2022/11/22 08:45:38;;;;;;;4.93;1.90;;;8.40;86.40;;;;;;5037552;28;20109;-59
2022/11/22 08:48:03;;;;;;;6.05;2.30;;;8.40;86.30;;;;;;5038110;28;20037;-59
2022/11/22 08:50:29;;;;;;;6.28;2.03;;;8.40;86.30;;;;;;5035450;28;20022;-60
2022/11/22 08:52:54;;;;;;;5.78;2.10;;;8.40;86.40;;;;;;5036370;28;20037;-58
2022/11/22 08:55:20;;;;;;;5.53;1.95;;;8.40;86.40;;;;;;5037558;28;20025;-60
2022/11/22 08:57:45;;;;;;;5.50;2.08;;;8.40;86.30;;;;;;5037245;28;20028;-60
2022/11/22 09:00:11;;;;;;;6.10;2.20;;;8.40;86.20;;;;;;5037417;28;20083;-60
2022/11/22 09:02:37;;;;;;;8.02;2.08;;;8.50;86.30;;;;;;5033058;28;20032;-60
2022/11/22 09:05:03;;;;;;;9.10;2.22;;;8.50;86.20;;;;;;5036747;28;20112;-57
2022/11/22 09:07:29;;;;;;;9.23;1.60;;;8.50;86.10;;;;;;5037217;28;20171;-59
2022/11/22 09:09:55;;;;;;;6.68;1.58;;;8.50;86.00;;;;;;5037990;28;20060;-59
2022/11/22 09:12:20;;;;;;;6.75;1.85;;;8.60;86.00;;;;;;5034873;28;20086;-59
2022/11/22 09:14:46;;;;;;;6.18;1.98;;;8.60;86.00;;;;;;5036455;28;20036;-60
2022/11/22 09:17:11;;;;;;;5.85;1.88;;;8.60;85.90;;;;;;5037651;28;20053;-59
2022/11/22 09:19:37;;;;;;;7.43;2.10;;;8.60;85.90;;;;;;5036582;28;20337;-59
2022/11/22 09:22:02;;;;;;;6.57;2.10;;;8.60;85.80;;;;;;5037893;28;20103;-59
2022/11/22 09:24:28;;;;;;;4.63;1.95;;;8.70;85.80;;;;;;5036568;28;20029;-59
2022/11/22 09:26:54;;;;;;;7.93;2.08;;;8.70;85.70;;;;;;5036654;28;20520;-61
2022/11/22 09:29:19;;;;;;;5.43;1.58;;;8.70;85.50;;;;;;5037873;28;20033;-60
2022/11/22 09:31:45;;;;;;;4.47;1.83;;;8.70;86.30;;;;;;5020395;28;20044;-59
2022/11/22 09:34:10;;;;;;;9.63;2.00;;;8.70;85.30;;;;;;5036850;28;20029;-59
2022/11/22 09:36:36;;;;;;;2.95;1.48;;;8.70;85.20;;;;;;5035028;28;20071;-60
2022/11/22 09:39:01;;;;;;;6.18;1.77;;;8.70;85.20;;;;;;5038079;28;20041;-60
2022/11/22 09:41:53;;;;;;;8.65;1.70;;;8.80;85.30;;;;;;5036363;28;20068;-60
2022/11/22 09:44:30;;;;;;;4.38;1.27;;;8.80;84.90;;;;;;5036571;28;20032;-61
2022/11/22 09:47:34;;;;;;;6.57;1.42;;;8.80;85.00;;;;;;5036645;28;20044;-60
2022/11/22 09:50:24;;;;;;;8.80;1.60;;;8.80;84.70;;;;;;5037390;28;20037;-59
2022/11/22 09:53:02;;;;;;;8.23;1.80;;;8.80;84.70;;;;;;5035325;28;20378;-59
2022/11/22 09:55:35;;;;;;;7.00;1.98;;;8.80;85.40;;;;;;5038011;28;20281;-61
2022/11/22 09:58:32;;;;;;;7.53;1.50;;;8.80;84.50;;;;;;5037427;28;20029;-61
2022/11/22 10:01:12;;;;;;;5.95;1.42;;;8.80;84.10;;;;;;5017504;28;20048;-59
2022/11/22 10:03:43;;;;;;;9.48;1.58;;;8.80;84.10;;;;;;5036034;28;20059;-60
2022/11/22 10:06:36;;;;;;;6.40;1.77;;;8.80;83.90;;;;;;5036897;28;20518;-59
2022/11/22 10:09:13;;;;;;;7.18;1.95;;;8.80;83.90;;;;;;5025961;28;20045;-61
2022/11/22 10:11:48;;;;;;;8.50;1.63;;;8.80;84.00;;;;;;5034747;28;20479;-60
2022/11/22 10:14:24;;;;;;;6.78;1.40;;;8.80;83.80;;;;;;5035796;28;20428;-60
2022/11/22 10:17:19;;;;;;;7.38;1.85;;;8.80;83.60;;;;;;5036861;28;20578;-60
2022/11/22 10:20:00;;;;;;;4.47;1.60;;;8.80;83.30;;;;;;5001812;28;20646;-59
2022/11/22 10:22:29;;;;;;;5.55;1.27;;;8.90;83.40;;;;;;5036208;28;20102;-60
2022/11/22 10:24:57;;;;;;;4.03;1.42;;;8.90;83.40;;;;;;5036366;28;20065;-60
2022/11/22 10:27:26;;;;;;;7.72;1.52;;;8.90;83.40;;;;;;5035883;28;20535;-60
2022/11/22 10:30:00;;;;;;;6.43;1.70;;;8.90;83.40;;;;;;5036842;28;20037;-60
2022/11/22 10:32:53;;;;;;;5.85;1.45;;;8.90;82.90;;;;;;5036513;28;20568;-61
2022/11/22 10:35:37;;;;;;;4.72;1.23;;;8.90;83.00;;;;;;5036302;28;20044;-61
2022/11/22 10:38:16;;;;;;;8.52;1.50;;;8.90;82.00;;;;;;5035760;28;20045;-61
2022/11/22 10:40:56;;;;;;;7.05;1.30;;;8.90;81.60;;;;;;5035955;28;20400;-59
2022/11/22 10:43:40;;;;;;;7.32;1.35;;;8.90;81.60;;;;;;5036168;28;20025;-61
2022/11/22 10:46:30;;;;;;;6.10;1.38;;;8.90;82.00;;;;;;5036856;28;20025;-60
2022/11/22 10:49:12;;;;;;;5.65;1.05;;;8.90;81.40;;;;;;5035040;28;20033;-59
2022/11/22 10:51:58;;;;;;;8.50;2.00;;;8.90;81.50;;;;;;5036229;28;20040;-61
2022/11/22 10:54:44;;;;;;;8.45;1.52;;;8.90;81.00;;;;;;5035656;28;20033;-61
2022/11/22 10:57:28;;;;;;;4.10;1.15;;;8.90;80.80;;;;;;5036533;28;20036;-59
2022/11/22 11:00:16;;;;;;;6.43;1.20;;;8.90;80.10;;;;;;5037204;28;20037;-60
2022/11/22 11:03:03;;;;;;;7.80;1.27;;;8.90;80.10;;;;;;5040115;28;20064;-59
2022/11/22 11:05:39;;;;;;;3.80;1.23;;;8.90;79.70;;;;;;5039477;28;20771;-60
2022/11/22 11:08:08;;;;;;;10.77;1.30;;;9.00;80.80;;;;;;5041660;28;20079;-59
2022/11/22 11:10:38;;;;;;;6.05;1.17;;;9.00;80.20;;;;;;5038102;28;20086;-59
2022/11/22 11:13:25;;;;;;;4.90;1.02;;;9.00;80.10;;;;;;5038436;28;20503;-59
2022/11/22 11:15:54;;;;;;;6.40;0.90;;;9.00;78.50;;;;;;5036913;28;20033;-59
2022/11/22 11:18:42;;;;;;;5.90;1.30;;;9.00;78.90;;;;;;5040012;28;20403;-60
2022/11/22 11:21:12;;;;;;;6.35;0.98;;;9.10;78.60;;;;;;5040184;28;20106;-59
2022/11/22 11:23:38;;;;;;;8.27;1.23;;;9.10;79.00;;;;;;5040616;28;20064;-61
2022/11/22 11:26:20;;;;;;;9.68;1.40;;;9.10;79.20;;;;;;5038752;28;20045;-59
2022/11/22 11:28:46;;;;;;;2.25;0.73;;;9.20;78.40;;;;;;5039847;28;20063;-60
2022/11/22 11:31:12;;;;;;;4.20;1.10;;;9.10;78.90;;;;;;5040540;28;20515;-59
2022/11/22 11:33:40;;;;;;;5.40;0.80;;;9.20;78.90;;;;;;5038579;28;20037;-61
2022/11/22 11:36:06;;;;;;;3.45;0.85;;;9.20;78.60;;;;;;5040083;28;20041;-60
2022/11/22 11:38:31;;;;;;;4.57;0.70;;;9.20;78.10;;;;;;5038782;28;20025;-61
2022/11/22 11:40:57;;;;;;;4.47;1.40;;;9.20;77.70;;;;;;5039369;28;20045;-59
2022/11/22 11:43:23;;;;;;;6.22;1.27;;;9.20;78.20;;;;;;5039134;28;20556;-61
2022/11/22 11:45:50;;;;;;;6.15;0.90;;;9.20;77.20;;;;;;5039459;28;20044;-60
2022/11/22 11:48:24;;;;;;;4.55;1.00;;;9.20;77.30;;;;;;5038962;28;20497;-59
2022/11/22 11:50:50;;;;;;;7.40;1.17;;;9.20;76.60;;;;;;5038848;28;20041;-60
2022/11/22 11:53:24;;;;;;;6.60;0.90;;;9.20;77.00;;;;;;5038236;28;20045;-59
2022/11/22 11:55:50;;;;;;;4.00;1.00;;;9.30;76.10;;;;;;5039594;28;20037;-59
2022/11/22 11:58:24;;;;;;;6.55;1.08;;;9.20;76.70;;;;;;5039507;28;20381;-59
2022/11/22 12:00:50;;;;;;;5.13;0.90;;;9.30;76.10;;;;;;5038794;28;20629;-59
2022/11/22 12:03:18;;;;;;;5.95;0.90;;;9.20;76.60;;;;;;5039238;28;20106;-59
2022/11/22 12:05:44;;;;;;;5.10;1.17;;;9.30;76.50;;;;;;5038599;28;20462;-60
2022/11/22 12:08:29;;;;;;;3.97;0.90;;;9.30;76.00;;;;;;5040227;28;20496;-59
2022/11/22 12:10:58;;;;;;;;;;;9.30;74.70;;;;;;5038074;28;20041;-61
2022/11/22 12:14:02;;;;;;;5.32;1.00;;;9.30;75.30;;;;;;5038844;28;19917;-61
2022/11/22 12:16:39;;;;;;;2.85;0.70;;;9.30;74.90;;;;;;4947721;28;20081;-60
2022/11/22 12:19:04;;;;;;;6.78;0.90;;;9.30;75.80;;;;;;5030141;28;20097;-59
2022/11/22 12:21:58;;;;;;;8.82;1.00;;;9.20;75.80;;;;;;5038134;28;20045;-61
2022/11/22 12:24:46;;;;;;;4.72;1.13;;;9.20;74.80;;;;;;5038809;28;20033;-60
2022/11/22 12:27:12;;;;;;;4.60;1.02;;;9.20;75.70;;;;;;5039435;28;20037;-60
2022/11/22 12:29:40;;;;;;;9.07;1.00;;;9.20;75.80;;;;;;5038499;28;20515;-61
2022/11/22 12:32:33;;;;;;;6.40;1.02;;;9.20;75.60;;;;;;5038212;28;20112;-61
2022/11/22 12:35:13;;;;;;;5.85;1.13;;;9.20;74.40;;;;;;5036535;28;20041;-60
2022/11/22 12:37:50;;;;;;;5.05;1.08;;;9.20;75.10;;;;;;5038400;28;20037;-61
2022/11/22 12:40:32;;;;;;;7.90;0.90;;;9.20;74.90;;;;;;5038735;28;20041;-61
2022/11/22 12:43:03;;;;;;;4.55;0.70;;;9.20;74.70;;;;;;5038279;28;20056;-61
2022/11/22 12:45:39;;;;;;;5.85;0.80;;;9.20;74.40;;;;;;5026420;28;20041;-60
2022/11/22 12:48:14;;;;;;;5.95;0.95;;;9.20;74.00;;;;;;5038216;28;20090;-60
2022/11/22 12:50:50;;;;;;;2.70;0.77;;;9.20;74.00;;;;;;5037423;28;20029;-60
2022/11/22 12:53:23;;;;;;;6.57;0.90;;;9.10;74.00;;;;;;5037674;28;20033;-60
2022/11/22 12:56:26;;;;;;;2.85;0.60;;;9.10;74.00;;;;;;5038809;28;20142;-60
2022/11/22 12:59:14;;;;;;;3.63;0.70;;;9.10;73.80;;;;;;5038059;28;20044;-60
2022/11/22 13:01:50;;;;;;;8.07;0.90;;;9.10;73.90;;;;;;5037850;28;20055;-60
2022/11/22 13:04:40;;;;;;;7.97;1.13;;;9.10;74.30;;;;;;5037783;28;20163;-60
2022/11/22 13:07:18;;;;;;;5.63;1.10;;;9.10;74.20;;;;;;5038279;28;20131;-57
2022/11/22 13:09:50;;;;;;;4.32;0.90;;;9.10;74.40;;;;;;5037691;28;20193;-59
2022/11/22 13:12:22;;;;;;;4.63;0.88;;;9.10;74.90;;;;;;5036781;28;20168;-59
2022/11/22 13:14:53;;;;;;;4.15;0.60;;;9.10;74.40;;;;;;5038337;28;20036;-60
2022/11/22 13:17:21;;;;;;;3.78;0.80;;;9.10;74.60;;;;;;5019695;28;20760;-60
2022/11/22 13:19:59;;;;;;;5.40;1.05;;;9.10;74.60;;;;;;5036989;28;20037;-59
2022/11/22 13:22:55;;;;;;;4.32;1.00;;;9.10;74.10;;;;;;5038031;28;20022;-59
2022/11/22 13:25:55;;;;;;;4.72;0.70;;;9.10;73.90;;;;;;5038148;28;20040;-60